Time;durP1;ratioP1;P1;durP2;ratioP2;P2;SDS_P1;SDS_P2;PMS_P1;PMS_P2;Temp;Humidity;BMP_temperature;BMP_pressure;BME280_temperature;BME280_humidity;BME280_pressure;Samples;Min_cycle;Max_cycle;Signal;HPM_P1;HPM_P2
2022/09/24 00:01:07;;;;;;;47.05;35.42;;;12.70;99.90;;;;;;4967428;28;20546;-95
2022/09/24 00:03:33;;;;;;;48.83;37.33;;;12.70;99.90;;;;;;4955802;28;20053;-94
2022/09/24 00:06:01;;;;;;;50.33;36.28;;;12.80;99.90;;;;;;4971184;28;20047;-95
2022/09/24 00:08:27;;;;;;;49.70;36.88;;;12.80;99.90;;;;;;4971260;28;20070;-95
2022/09/24 00:10:56;;;;;;;49.97;35.03;;;12.90;99.90;;;;;;4964542;28;20044;-95
2022/09/24 00:13:22;;;;;;;44.92;34.72;;;12.70;99.90;;;;;;4970033;28;20039;-95
2022/09/24 00:15:49;;;;;;;52.67;39.10;;;12.80;99.90;;;;;;4969685;28;20050;-95
2022/09/24 00:18:16;;;;;;;56.83;38.33;;;12.80;99.90;;;;;;4973990;28;20122;-95
2022/09/24 00:20:42;;;;;;;58.15;39.97;;;13.00;99.90;;;;;;4961186;28;20564;-95
2022/09/24 00:23:09;;;;;;;53.28;40.65;;;12.80;99.90;;;;;;4968434;28;20392;-95
2022/09/24 00:28:30;;;;;;;60.03;41.30;;;12.80;99.90;;;;;;4966710;28;20078;-96
2022/09/24 00:30:57;;;;;;;57.17;40.33;;;12.90;99.90;;;;;;4969212;28;20036;-96
2022/09/24 00:33:27;;;;;;;60.08;40.92;;;12.80;99.90;;;;;;4970646;28;20058;-96
2022/09/24 00:36:03;;;;;;;62.83;42.92;;;12.80;99.90;;;;;;4966228;28;20046;-96
2022/09/24 00:38:29;;;;;;;58.70;43.83;;;12.80;99.90;;;;;;4971972;28;20038;-95
2022/09/24 00:40:55;;;;;;;58.80;44.08;;;12.80;99.90;;;;;;4969635;28;21058;-95
2022/09/24 00:43:33;;;;;;;61.67;45.33;;;12.90;99.90;;;;;;4970504;28;20046;-95
2022/09/24 00:46:06;;;;;;;64.00;44.83;;;12.80;99.90;;;;;;4967956;28;20047;-94
2022/09/24 00:48:33;;;;;;;66.85;46.80;;;12.90;99.90;;;;;;4967758;28;20039;-95
2022/09/24 00:51:00;;;;;;;64.95;44.78;;;12.90;99.90;;;;;;4966956;28;20447;-94
2022/09/24 00:53:31;;;;;;;62.90;46.38;;;12.90;99.90;;;;;;4952116;28;20074;-96
2022/09/24 00:55:59;;;;;;;67.10;47.20;;;12.90;99.90;;;;;;4969097;28;20043;-94
2022/09/24 00:58:27;;;;;;;59.30;44.08;;;12.90;99.90;;;;;;4971771;28;20114;-94
2022/09/24 01:01:00;;;;;;;60.08;45.05;;;12.90;99.90;;;;;;4968589;28;20059;-96
2022/09/24 01:03:27;;;;;;;70.38;47.08;;;12.90;99.90;;;;;;4968147;28;20348;-95
2022/09/24 01:05:55;;;;;;;71.20;47.63;;;12.90;99.90;;;;;;4967649;28;20043;-95
2022/09/24 01:08:21;;;;;;;67.40;47.15;;;12.90;99.90;;;;;;4969554;28;20182;-94
2022/09/24 01:11:19;;;;;;;68.70;47.65;;;12.90;99.90;;;;;;4952254;28;20387;-95
2022/09/24 01:14:25;;;;;;;67.43;47.90;;;12.90;99.90;;;;;;4962596;28;20039;-96
2022/09/24 01:17:18;;;;;;;68.40;48.25;;;12.90;99.90;;;;;;4971436;28;20502;-96
2022/09/24 01:20:20;;;;;;;75.30;51.28;;;12.90;99.90;;;;;;4965251;28;20525;-96
2022/09/24 01:23:19;;;;;;;70.97;48.50;;;12.90;99.90;;;;;;4952074;28;20074;-95
2022/09/24 01:26:18;;;;;;;69.93;49.13;;;13.00;99.90;;;;;;4969977;28;20042;-94
2022/09/24 01:29:04;;;;;;;78.15;53.42;;;12.90;99.90;;;;;;4966037;28;20039;-95
2022/09/24 01:31:46;;;;;;;79.53;51.47;;;12.90;99.90;;;;;;4967577;28;20035;-95
2022/09/24 01:34:18;;;;;;;73.45;50.05;;;13.00;99.90;;;;;;4967980;28;20058;-95
2022/09/24 01:36:45;;;;;;;63.38;48.10;;;13.00;99.90;;;;;;4962888;28;20031;-96
2022/09/24 01:39:13;;;;;;;84.97;56.28;;;13.00;99.90;;;;;;4969974;28;20176;-95
2022/09/24 01:41:41;;;;;;;86.43;55.78;;;13.00;99.90;;;;;;4971995;28;20043;-93
2022/09/24 01:44:09;;;;;;;79.65;54.95;;;13.00;99.90;;;;;;4962710;28;20037;-96
2022/09/24 01:46:39;;;;;;;87.35;56.60;;;13.00;99.90;;;;;;4966861;28;20053;-96
2022/09/24 01:49:06;;;;;;;86.22;57.40;;;13.20;99.90;;;;;;4960567;28;20546;-94
2022/09/24 01:51:43;;;;;;;87.18;57.95;;;13.00;99.90;;;;;;4968677;28;20514;-94
2022/09/24 01:54:16;;;;;;;94.68;57.50;;;13.10;99.90;;;;;;4966290;28;20043;-95
2022/09/24 01:56:48;;;;;;;95.25;59.38;;;13.00;99.90;;;;;;4968212;28;20055;-94
2022/09/24 01:59:21;;;;;;;85.57;56.65;;;13.10;99.90;;;;;;4966970;28;20046;-94
2022/09/24 02:02:13;;;;;;;88.40;56.30;;;13.00;99.90;;;;;;4966650;28;20041;-94
2022/09/24 02:04:43;;;;;;;86.68;55.92;;;13.10;99.90;;;;;;4889070;29;20099;-94
2022/09/24 02:07:15;;;;;;;92.28;59.58;;;13.10;99.90;;;;;;4891279;29;20057;-95
2022/09/24 02:09:42;;;;;;;86.28;59.78;;;13.10;99.90;;;;;;4894365;29;20143;-95
2022/09/24 02:12:16;;;;;;;91.15;59.55;;;13.10;99.90;;;;;;4874079;29;20052;-95
2022/09/24 02:14:53;;;;;;;89.75;57.75;;;13.10;99.90;;;;;;4891956;29;20417;-96
2022/09/24 02:17:22;;;;;;;94.38;59.30;;;13.40;99.90;;;;;;4891689;29;20231;-96
2022/09/24 02:19:49;;;;;;;88.75;58.28;;;13.00;99.90;;;;;;4885477;29;20503;-96
2022/09/24 02:22:16;;;;;;;91.07;58.65;;;13.10;99.90;;;;;;4872492;29;20056;-95
2022/09/24 02:24:52;;;;;;;87.25;57.25;;;13.10;99.90;;;;;;4893786;29;20045;-95
2022/09/24 02:27:18;;;;;;;93.35;59.92;;;13.00;99.90;;;;;;4887507;29;20064;-95
2022/09/24 02:29:45;;;;;;;88.88;57.65;;;13.10;99.90;;;;;;4890195;29;20128;-96
2022/09/24 02:32:16;;;;;;;90.15;59.25;;;13.10;99.90;;;;;;4889607;29;20044;-96
2022/09/24 02:34:50;;;;;;;85.88;59.00;;;13.10;99.90;;;;;;4894946;29;20052;-95
2022/09/24 02:37:16;;;;;;;98.40;59.88;;;13.10;99.90;;;;;;4896094;29;20045;-95
2022/09/24 02:39:42;;;;;;;91.00;59.40;;;13.10;99.90;;;;;;4895996;29;20044;-95
2022/09/24 02:42:11;;;;;;;93.43;58.40;;;13.10;99.90;;;;;;4945797;28;20078;-95
2022/09/24 02:44:36;;;;;;;88.28;56.85;;;13.10;99.90;;;;;;4970395;28;20023;-95
2022/09/24 02:47:02;;;;;;;89.28;57.53;;;13.10;99.90;;;;;;4948299;28;20063;-94
2022/09/24 02:49:28;;;;;;;86.82;58.35;;;13.10;99.90;;;;;;4968833;28;20041;-95
2022/09/24 02:51:54;;;;;;;88.13;57.92;;;13.10;99.90;;;;;;4971814;28;20090;-95
2022/09/24 02:54:21;;;;;;;90.30;59.92;;;13.10;99.90;;;;;;4963104;28;20728;-95
2022/09/24 02:56:47;;;;;;;92.70;58.55;;;13.10;99.90;;;;;;4970976;28;20035;-93
2022/09/24 02:59:13;;;;;;;93.80;60.75;;;13.00;99.90;;;;;;4968783;28;20105;-95
2022/09/24 03:01:38;;;;;;;94.72;58.88;;;13.10;99.90;;;;;;4969985;28;20670;-95
2022/09/24 03:04:05;;;;;;;89.88;56.33;;;13.10;99.90;;;;;;4949901;28;20184;-95
2022/09/24 03:06:30;;;;;;;93.80;58.58;;;13.00;99.90;;;;;;4969265;28;20049;-95
2022/09/24 03:08:57;;;;;;;87.47;58.13;;;13.00;99.90;;;;;;4971697;28;20047;-95
2022/09/24 03:11:22;;;;;;;98.75;61.65;;;13.10;99.90;;;;;;4947007;28;20045;-95
2022/09/24 03:13:49;;;;;;;96.47;61.00;;;13.10;99.90;;;;;;4967656;28;20293;-95
2022/09/24 03:16:15;;;;;;;89.30;56.63;;;13.10;99.90;;;;;;4972729;28;20038;-95
2022/09/24 03:18:41;;;;;;;88.43;59.72;;;13.10;99.90;;;;;;4972198;28;20090;-95
2022/09/24 03:21:11;;;;;;;94.10;59.90;;;13.10;99.90;;;;;;4967022;28;20054;-95
2022/09/24 03:23:37;;;;;;;86.03;58.17;;;13.10;99.90;;;;;;4970203;28;20122;-96
2022/09/24 03:26:04;;;;;;;87.13;57.03;;;13.10;99.90;;;;;;4952203;28;20034;-96
2022/09/24 03:28:29;;;;;;;86.05;57.85;;;13.10;99.90;;;;;;4966782;28;20043;-94
2022/09/24 03:31:01;;;;;;;87.22;56.33;;;13.30;99.90;;;;;;4956729;28;20094;-95
2022/09/24 03:33:43;;;;;;;85.43;57.33;;;13.10;99.90;;;;;;4972489;28;20035;-96
2022/09/24 03:36:14;;;;;;;84.43;55.40;;;13.10;99.90;;;;;;4966874;28;20054;-95
2022/09/24 03:38:41;;;;;;;84.13;56.55;;;13.10;99.90;;;;;;4972149;28;20780;-96
2022/09/24 03:41:07;;;;;;;85.68;55.78;;;13.20;99.90;;;;;;4968135;28;20114;-95
2022/09/24 03:43:34;;;;;;;86.75;56.67;;;13.20;99.90;;;;;;4958785;28;20383;-96
2022/09/24 03:45:59;;;;;;;83.38;56.50;;;13.10;99.90;;;;;;4967569;28;20093;-95
2022/09/24 03:48:26;;;;;;;89.38;59.08;;;13.20;99.90;;;;;;4964458;28;20043;-95
2022/09/24 03:50:52;;;;;;;87.80;58.17;;;13.20;99.90;;;;;;4973256;28;20043;-96
2022/09/24 03:53:18;;;;;;;82.07;57.35;;;13.10;99.90;;;;;;4973422;28;20038;-95
2022/09/24 03:55:46;;;;;;;85.70;57.22;;;13.20;99.90;;;;;;4971225;28;20047;-93
2022/09/24 03:58:14;;;;;;;85.18;56.65;;;13.20;99.90;;;;;;4974351;28;20034;-94
2022/09/24 04:00:40;;;;;;;81.85;55.70;;;13.20;99.90;;;;;;4973161;28;20039;-94
2022/09/24 04:03:05;;;;;;;89.60;56.03;;;13.10;99.90;;;;;;4951459;28;20039;-94
2022/09/24 04:05:31;;;;;;;83.78;56.47;;;13.20;99.90;;;;;;4969546;28;20043;-94
2022/09/24 04:07:58;;;;;;;79.30;53.42;;;13.20;99.90;;;;;;4952751;28;20098;-94
2022/09/24 04:10:24;;;;;;;77.40;53.38;;;13.20;99.90;;;;;;4968950;28;20042;-95
2022/09/24 04:12:51;;;;;;;86.15;56.17;;;13.20;99.90;;;;;;4967140;28;20523;-93
2022/09/24 04:15:17;;;;;;;81.53;55.40;;;13.10;99.90;;;;;;4972850;28;20086;-93
2022/09/24 04:18:09;;;;;;;85.70;54.78;;;13.20;99.90;;;;;;4972512;28;20035;-93
2022/09/24 04:20:35;;;;;;;83.95;55.67;;;13.20;99.90;;;;;;4966944;28;20058;-92
2022/09/24 04:23:01;;;;;;;88.13;56.42;;;13.20;99.90;;;;;;4964115;28;20046;-95
2022/09/24 04:25:32;;;;;;;84.22;55.67;;;13.20;99.90;;;;;;4962080;28;20039;-94
2022/09/24 04:28:00;;;;;;;86.80;54.65;;;13.20;99.90;;;;;;4969991;28;20046;-94
2022/09/24 04:30:27;;;;;;;79.72;52.90;;;13.30;99.90;;;;;;4964083;28;20224;-95
2022/09/24 04:32:53;;;;;;;88.22;56.70;;;13.10;99.90;;;;;;4970508;28;20066;-94
2022/09/24 04:35:20;;;;;;;94.47;57.53;;;13.40;99.90;;;;;;4975127;28;20088;-94
2022/09/24 04:37:46;;;;;;;93.95;58.22;;;13.10;99.90;;;;;;4974045;28;20043;-94
2022/09/24 04:40:12;;;;;;;85.72;54.70;;;13.20;99.90;;;;;;4969835;28;20050;-89
2022/09/24 04:42:39;;;;;;;79.72;53.75;;;13.10;99.90;;;;;;4975137;28;20043;-95
2022/09/24 04:45:09;;;;;;;90.40;59.65;;;13.20;99.90;;;;;;4980112;28;20042;-94
2022/09/24 04:47:36;;;;;;;99.47;64.68;;;13.20;99.90;;;;;;4955338;28;20046;-95
2022/09/24 04:50:03;;;;;;;84.90;54.15;;;13.20;99.90;;;;;;4973593;28;20543;-95
2022/09/24 04:52:31;;;;;;;77.60;51.13;;;13.20;99.90;;;;;;4966597;28;20063;-96
2022/09/24 04:54:57;;;;;;;72.00;47.53;;;13.20;99.90;;;;;;4973286;28;20053;-94
2022/09/24 04:57:24;;;;;;;71.60;46.50;;;13.20;99.90;;;;;;4977258;28;20125;-96
2022/09/24 04:59:49;;;;;;;70.25;49.42;;;13.30;99.90;;;;;;4978372;28;20117;-96
2022/09/24 05:02:15;;;;;;;56.40;40.42;;;13.20;99.90;;;;;;4975180;28;20503;-96
2022/09/24 05:04:42;;;;;;;73.28;51.22;;;13.10;99.90;;;;;;4979846;28;20039;-96
2022/09/24 05:07:08;;;;;;;103.65;64.47;;;13.10;99.90;;;;;;4985882;28;20077;-95
2022/09/24 05:09:34;;;;;;;87.95;54.08;;;13.10;99.90;;;;;;4988597;28;20045;-96
2022/09/24 05:12:00;;;;;;;81.63;53.15;;;13.10;99.90;;;;;;4982471;28;20039;-96
2022/09/24 05:14:26;;;;;;;80.78;52.40;;;13.10;99.90;;;;;;4967153;28;20437;-96
2022/09/24 05:16:52;;;;;;;76.63;50.15;;;13.20;99.90;;;;;;4981546;28;20035;-95
2022/09/24 05:19:17;;;;;;;83.47;53.75;;;13.10;99.90;;;;;;4983355;28;20047;-96
2022/09/24 05:21:43;;;;;;;69.57;47.63;;;13.10;99.90;;;;;;4974061;28;20047;-95
2022/09/24 05:24:09;;;;;;;74.55;48.83;;;13.20;99.90;;;;;;4982249;28;20031;-94
2022/09/24 05:27:20;;;;;;;92.32;54.10;;;13.20;99.90;;;;;;4977620;28;20293;-95
2022/09/24 05:29:20;;;;;;;75.00;49.67;;;13.20;99.90;;;;;;4956155;28;20058;-95
2022/09/24 05:31:46;;;;;;;108.60;66.80;;;13.20;99.90;;;;;;4982209;28;20053;-95
2022/09/24 05:34:13;;;;;;;100.57;63.75;;;13.20;99.90;;;;;;4957553;28;20043;-94
2022/09/24 05:36:39;;;;;;;89.03;55.17;;;13.20;99.90;;;;;;4969549;28;20114;-95
2022/09/24 05:39:05;;;;;;;99.97;61.70;;;13.20;99.90;;;;;;4976686;28;20642;-94
2022/09/24 05:41:31;;;;;;;82.78;52.72;;;13.20;99.90;;;;;;4956794;28;20039;-95
2022/09/24 05:43:58;;;;;;;79.90;53.38;;;13.20;99.90;;;;;;4969400;28;20043;-93
2022/09/24 05:46:24;;;;;;;68.57;45.42;;;13.20;99.90;;;;;;4953105;28;20047;-94
2022/09/24 05:48:50;;;;;;;66.88;44.42;;;13.20;99.90;;;;;;4965026;28;20047;-94
2022/09/24 05:51:15;;;;;;;66.63;42.58;;;13.20;99.90;;;;;;4974762;28;20037;-95
2022/09/24 05:53:41;;;;;;;74.63;45.33;;;13.50;99.90;;;;;;4970549;28;20118;-96
2022/09/24 05:56:09;;;;;;;64.45;43.92;;;13.20;99.90;;;;;;4958052;28;20415;-94
2022/09/24 05:58:34;;;;;;;64.55;42.97;;;13.30;99.90;;;;;;4976258;28;20100;-96
2022/09/24 06:01:00;;;;;;;60.70;40.72;;;13.30;99.90;;;;;;4977395;28;20058;-95
2022/09/24 06:03:28;;;;;;;58.95;39.65;;;13.30;99.90;;;;;;4957491;28;20416;-94
2022/09/24 06:05:55;;;;;;;74.32;53.25;;;13.30;99.90;;;;;;4973418;28;20050;-95
2022/09/24 06:08:21;;;;;;;58.05;39.47;;;13.30;99.90;;;;;;4959055;28;20055;-94
2022/09/24 06:10:47;;;;;;;57.65;39.30;;;13.30;99.90;;;;;;4970326;28;20043;-94
2022/09/24 06:13:17;;;;;;;50.75;34.38;;;13.30;99.90;;;;;;4975358;28;20110;-94
2022/09/24 06:15:44;;;;;;;49.42;33.85;;;13.40;99.90;;;;;;4971082;28;20464;-93
2022/09/24 06:18:11;;;;;;;47.67;32.33;;;13.40;99.90;;;;;;4976570;28;20129;-92
2022/09/24 06:20:37;;;;;;;48.80;30.90;;;13.40;99.90;;;;;;4973714;28;20039;-93
2022/09/24 06:23:03;;;;;;;42.53;28.45;;;13.40;99.90;;;;;;4976744;28;20072;-96
2022/09/24 06:25:29;;;;;;;39.67;26.55;;;13.40;99.90;;;;;;4958339;28;20066;-86
2022/09/24 06:28:00;;;;;;;34.92;20.70;;;13.40;99.90;;;;;;4951007;28;20053;-94
2022/09/24 06:30:40;;;;;;;35.72;20.08;;;13.50;99.90;;;;;;4976448;28;20038;-96
2022/09/24 06:33:10;;;;;;;32.47;20.27;;;13.50;99.90;;;;;;4977496;28;20035;-94
2022/09/24 06:35:38;;;;;;;33.38;17.30;;;13.50;99.90;;;;;;4955215;28;20047;-95
2022/09/24 06:38:05;;;;;;;26.35;11.88;;;13.50;99.90;;;;;;4970247;28;20102;-92
2022/09/24 06:40:31;;;;;;;18.00;9.15;;;13.40;99.90;;;;;;4965753;28;20054;-93
2022/09/24 06:42:57;;;;;;;24.65;11.13;;;13.50;99.90;;;;;;4969019;28;20078;-94
2022/09/24 06:45:24;;;;;;;20.25;8.63;;;13.50;99.90;;;;;;4958186;28;20077;-94
2022/09/24 06:47:54;;;;;;;22.38;7.60;;;13.40;99.90;;;;;;4959128;28;20047;-94
2022/09/24 06:50:21;;;;;;;17.63;6.72;;;13.40;99.90;;;;;;4958049;28;20041;-94
2022/09/24 06:52:47;;;;;;;18.55;5.95;;;13.40;99.90;;;;;;4968742;28;20452;-93
2022/09/24 06:55:13;;;;;;;16.80;5.63;;;13.40;99.90;;;;;;4946552;28;20070;-94
2022/09/24 06:57:39;;;;;;;12.80;4.95;;;13.40;99.90;;;;;;4973464;28;20432;-89
2022/09/24 07:00:05;;;;;;;11.48;4.20;;;13.40;99.90;;;;;;4968469;28;20074;-93
2022/09/24 07:02:31;;;;;;;15.95;4.32;;;13.40;99.90;;;;;;4952843;28;20062;-90
2022/09/24 07:04:56;;;;;;;11.35;2.80;;;13.40;99.90;;;;;;4973601;28;20030;-92
2022/09/24 07:07:28;;;;;;;15.02;5.30;;;13.40;99.90;;;;;;4957510;28;20043;-94
2022/09/24 07:09:55;;;;;;;19.08;3.95;;;13.40;99.90;;;;;;4973274;28;20085;-93
2022/09/24 07:12:21;;;;;;;12.73;3.70;;;13.40;99.90;;;;;;4955205;28;20047;-91
2022/09/24 07:14:47;;;;;;;14.13;3.38;;;13.50;99.90;;;;;;4956631;28;20034;-92
2022/09/24 07:17:13;;;;;;;11.27;3.03;;;13.60;99.90;;;;;;4955153;28;20047;-95
2022/09/24 07:19:39;;;;;;;13.93;2.90;;;13.60;99.90;;;;;;4974761;28;20047;-92
2022/09/24 07:22:05;;;;;;;14.80;2.53;;;13.60;99.90;;;;;;4968677;28;20125;-94
2022/09/24 07:24:30;;;;;;;19.95;2.97;;;13.70;99.90;;;;;;4966808;28;20046;-94
2022/09/24 07:26:56;;;;;;;13.52;2.55;;;13.70;99.90;;;;;;4951637;28;20047;-93
2022/09/24 07:29:22;;;;;;;16.70;2.50;;;13.70;99.90;;;;;;4966232;28;20495;-95
2022/09/24 07:31:48;;;;;;;13.55;2.75;;;13.80;99.90;;;;;;4971412;28;20512;-94
2022/09/24 07:34:14;;;;;;;18.42;3.05;;;13.80;99.90;;;;;;4968263;28;20127;-89
2022/09/24 07:36:40;;;;;;;12.05;2.90;;;13.80;99.90;;;;;;4953517;28;20061;-94
2022/09/24 07:39:06;;;;;;;12.50;2.80;;;13.90;99.90;;;;;;4953733;28;20431;-90
2022/09/24 07:41:32;;;;;;;14.48;2.42;;;13.90;99.90;;;;;;4953705;28;20119;-92
2022/09/24 07:43:59;;;;;;;12.15;2.22;;;14.00;99.90;;;;;;4968739;28;20423;-92
2022/09/24 07:46:25;;;;;;;13.00;1.70;;;14.00;99.90;;;;;;4970151;28;20399;-91
2022/09/24 07:48:55;;;;;;;8.75;1.63;;;14.10;99.90;;;;;;4952453;28;20055;-91
2022/09/24 07:51:26;;;;;;;9.02;2.10;;;14.10;99.90;;;;;;4969063;28;20500;-90
2022/09/24 07:53:52;;;;;;;10.77;2.28;;;14.10;99.90;;;;;;4959891;28;20034;-90
2022/09/24 07:56:18;;;;;;;14.27;2.03;;;14.10;99.90;;;;;;4967927;28;20038;-90
2022/09/24 07:58:48;;;;;;;8.20;1.60;;;14.10;99.90;;;;;;4970785;28;20039;-92
2022/09/24 08:01:15;;;;;;;13.25;1.48;;;14.10;99.90;;;;;;4943064;28;20035;-92
2022/09/24 08:03:41;;;;;;;9.27;1.58;;;14.10;99.90;;;;;;4952156;28;20471;-90
2022/09/24 08:06:07;;;;;;;12.25;2.13;;;14.10;99.90;;;;;;4971803;28;20044;-85
2022/09/24 08:08:32;;;;;;;10.27;1.73;;;14.00;99.90;;;;;;4934460;28;20082;-89
2022/09/24 08:11:06;;;;;;;10.00;1.65;;;14.00;99.90;;;;;;4950466;28;20100;-92
2022/09/24 08:13:33;;;;;;;6.65;1.70;;;14.00;99.90;;;;;;4952474;28;20190;-93
2022/09/24 08:15:59;;;;;;;10.70;1.45;;;14.00;99.90;;;;;;4941756;28;20038;-92
2022/09/24 08:18:27;;;;;;;8.43;1.40;;;14.00;99.90;;;;;;4977133;28;20050;-92
2022/09/24 08:20:52;;;;;;;5.45;1.10;;;14.00;99.90;;;;;;4939813;28;20102;-92
2022/09/24 08:23:19;;;;;;;8.27;1.30;;;14.00;99.90;;;;;;4971110;28;20102;-93
2022/09/24 08:25:46;;;;;;;6.20;1.15;;;14.00;99.90;;;;;;4953588;28;20082;-93
2022/09/24 08:28:15;;;;;;;8.27;1.45;;;14.00;99.90;;;;;;4958946;28;20043;-94
2022/09/24 08:30:42;;;;;;;9.27;1.20;;;14.00;99.90;;;;;;4951017;28;20125;-92
2022/09/24 08:33:08;;;;;;;9.13;2.10;;;14.00;99.90;;;;;;4954271;28;20041;-92
2022/09/24 08:35:34;;;;;;;7.10;1.13;;;14.10;99.90;;;;;;4972807;28;20039;-92
2022/09/24 08:38:01;;;;;;;8.43;1.35;;;14.10;99.90;;;;;;4955432;28;20081;-92
2022/09/24 08:40:30;;;;;;;9.82;1.33;;;14.10;99.90;;;;;;4967435;28;20109;-95
2022/09/24 08:43:26;;;;;;;10.77;1.88;;;14.20;99.90;;;;;;4958080;28;20078;-93
2022/09/24 08:48:50;;;;;;;11.75;3.80;;;14.30;99.90;;;;;;4973234;28;20055;-93
2022/09/24 08:51:18;;;;;;;13.15;6.00;;;14.30;99.90;;;;;;4932782;28;20049;-92
2022/09/24 08:54:01;;;;;;;9.68;2.83;;;14.30;99.90;;;;;;4969481;28;20039;-93
2022/09/24 08:56:31;;;;;;;13.80;2.83;;;14.30;99.90;;;;;;4963516;28;20047;-92
2022/09/24 08:59:08;;;;;;;12.65;3.88;;;14.30;99.90;;;;;;4945536;28;20068;-93
2022/09/24 09:01:55;;;;;;;10.43;2.45;;;14.30;99.90;;;;;;4972405;28;20089;-92
2022/09/24 09:04:38;;;;;;;16.55;2.33;;;14.30;99.90;;;;;;4973328;28;20038;-93
2022/09/24 09:07:24;;;;;;;12.73;2.17;;;14.30;99.90;;;;;;4951026;28;20198;-92
2022/09/24 09:10:02;;;;;;;13.00;2.30;;;14.30;99.90;;;;;;4948657;28;20034;-93
2022/09/24 09:12:43;;;;;;;9.32;3.40;;;14.40;99.90;;;;;;4939084;28;20106;-92
2022/09/24 09:15:17;;;;;;;14.30;3.92;;;14.40;99.90;;;;;;4938366;28;20117;-93
2022/09/24 09:17:51;;;;;;;13.73;3.17;;;14.40;99.90;;;;;;4948867;28;20130;-94
2022/09/24 09:20:42;;;;;;;17.45;8.02;;;14.40;99.90;;;;;;4955357;28;20074;-92
2022/09/24 09:23:26;;;;;;;15.32;3.85;;;14.50;99.90;;;;;;4967023;28;20055;-91
2022/09/24 09:25:57;;;;;;;15.52;2.50;;;14.50;99.90;;;;;;4970395;28;20045;-92
2022/09/24 09:28:25;;;;;;;14.63;3.00;;;14.40;99.90;;;;;;4969000;28;20054;-92
2022/09/24 09:30:54;;;;;;;13.52;3.67;;;14.40;99.90;;;;;;4939750;28;20106;-92
2022/09/24 09:33:33;;;;;;;12.55;3.78;;;14.30;99.90;;;;;;4952679;28;20055;-92
2022/09/24 09:36:39;;;;;;;11.95;3.15;;;14.40;99.90;;;;;;4955289;28;20062;-92
2022/09/24 09:39:39;;;;;;;9.18;2.95;;;14.40;99.90;;;;;;4972742;28;20051;-92
2022/09/24 09:42:27;;;;;;;17.10;7.47;;;14.40;99.90;;;;;;4969457;28;20062;-93
2022/09/24 09:44:53;;;;;;;9.05;1.30;;;14.40;99.90;;;;;;4957347;28;20488;-92
2022/09/24 09:47:44;;;;;;;9.00;1.48;;;14.40;99.90;;;;;;4954328;28;20507;-93
2022/09/24 09:50:47;;;;;;;10.10;2.00;;;14.40;99.90;;;;;;4963779;28;20035;-91
2022/09/24 09:53:25;;;;;;;10.40;2.35;;;14.40;99.90;;;;;;4894428;29;20040;-93
2022/09/24 09:55:58;;;;;;;12.90;1.67;;;14.40;99.90;;;;;;4879054;29;20087;-91
2022/09/24 09:58:33;;;;;;;7.85;1.77;;;14.40;99.90;;;;;;4877051;29;20068;-91
2022/09/24 10:01:11;;;;;;;11.25;1.50;;;14.40;99.90;;;;;;4874035;29;20209;-90
2022/09/24 10:03:51;;;;;;;10.98;1.58;;;14.40;99.90;;;;;;4867140;29;20722;-91
2022/09/24 10:06:28;;;;;;;10.15;1.95;;;14.30;99.90;;;;;;4878256;29;20123;-86
2022/09/24 10:09:06;;;;;;;8.30;1.30;;;14.30;99.90;;;;;;4893481;29;20526;-89
2022/09/24 10:11:32;;;;;;;8.60;1.40;;;14.30;99.90;;;;;;4893931;29;20182;-90
2022/09/24 10:14:03;;;;;;;6.80;1.75;;;14.30;99.90;;;;;;4891055;29;20142;-90
2022/09/24 10:16:28;;;;;;;5.28;1.08;;;14.40;99.90;;;;;;4893531;29;20044;-90
2022/09/24 10:18:54;;;;;;;7.15;1.88;;;14.40;99.90;;;;;;4892401;29;20445;-88
2022/09/24 10:21:34;;;;;;;8.63;1.40;;;14.40;99.90;;;;;;4877697;29;20041;-89
2022/09/24 10:24:03;;;;;;;6.55;1.40;;;14.50;99.90;;;;;;4879556;29;20053;-94
2022/09/24 10:26:38;;;;;;;6.40;1.25;;;14.60;99.90;;;;;;4881183;28;20050;-91
2022/09/24 10:31:48;;;;;;;6.20;1.10;;;14.60;99.90;;;;;;4965711;28;20043;-93
2022/09/24 10:34:24;;;;;;;10.23;1.88;;;14.60;99.90;;;;;;4945946;28;20094;-91
2022/09/24 10:37:01;;;;;;;7.32;1.02;;;14.70;99.90;;;;;;4971596;28;20039;-91
2022/09/24 10:39:27;;;;;;;9.10;1.70;;;14.60;99.90;;;;;;4951438;28;20038;-92
2022/09/24 10:41:55;;;;;;;8.93;1.00;;;14.60;99.90;;;;;;4952254;28;20129;-92
2022/09/24 10:44:23;;;;;;;7.85;1.20;;;14.60;99.90;;;;;;4955016;28;20043;-92
2022/09/24 10:47:20;;;;;;;4.40;1.00;;;14.60;99.90;;;;;;4971565;28;20122;-92
2022/09/24 10:50:13;;;;;;;8.50;1.17;;;14.60;99.90;;;;;;4950083;28;20054;-89
2022/09/24 10:52:50;;;;;;;10.02;2.47;;;14.60;99.90;;;;;;4969206;28;20046;-90
2022/09/24 10:55:46;;;;;;;10.85;2.92;;;14.60;99.90;;;;;;4969334;28;20030;-93
2022/09/24 10:58:33;;;;;;;9.65;2.67;;;14.60;99.90;;;;;;4967943;28;20045;-92
2022/09/24 11:01:19;;;;;;;9.90;1.52;;;14.60;99.90;;;;;;4932379;28;20043;-96
2022/09/24 11:04:17;;;;;;;11.50;1.40;;;14.60;99.90;;;;;;4952314;28;20475;-91
2022/09/24 11:07:12;;;;;;;7.20;1.48;;;14.60;99.90;;;;;;4943892;28;20057;-91
2022/09/24 11:10:16;;;;;;;7.65;1.42;;;14.70;99.90;;;;;;4943870;28;20059;-90
2022/09/24 11:13:23;;;;;;;8.20;1.92;;;14.70;99.90;;;;;;4955956;28;20047;-94
2022/09/24 11:15:52;;;;;;;7.47;1.20;;;14.70;99.90;;;;;;4971142;28;20169;-92
2022/09/24 11:18:32;;;;;;;7.22;1.13;;;14.70;99.90;;;;;;4957550;28;20047;-94
2022/09/24 11:21:22;;;;;;;9.02;1.50;;;14.80;99.90;;;;;;4974901;28;20050;-90
2022/09/24 11:24:05;;;;;;;5.80;1.13;;;14.80;99.90;;;;;;4951977;28;20507;-90
2022/09/24 11:42:48;;;;;;;6.35;1.20;;;14.90;99.90;;;;;;4760607;26;20513;-91
2022/09/24 11:45:33;;;;;;;8.73;1.70;;;14.90;99.90;;;;;;4927361;29;20054;-92
2022/09/24 12:34:12;;;;;;;7.60;1.20;;;14.50;99.90;;;;;;6241624;22;2037488;-96
2022/09/24 12:37:00;;;;;;;8.13;1.30;;;14.50;99.90;;;;;;6203024;22;20030;-95
2022/09/24 12:39:37;;;;;;;8.55;1.33;;;14.40;99.90;;;;;;6289447;22;20027;-94
2022/09/24 12:42:10;;;;;;;9.40;1.15;;;14.40;99.90;;;;;;6243043;22;20093;-95
2022/09/24 12:44:50;;;;;;;7.72;2.15;;;14.30;99.90;;;;;;6243283;22;20082;-90
2022/09/24 12:47:30;;;;;;;8.88;1.17;;;14.40;99.90;;;;;;6255757;22;20690;-92
2022/09/24 12:50:02;;;;;;;6.82;1.02;;;14.30;99.90;;;;;;6228079;22;20051;-91
2022/09/24 12:52:34;;;;;;;6.38;1.13;;;14.30;99.90;;;;;;6230302;22;20020;-92
2022/09/24 12:55:01;;;;;;;9.50;1.17;;;14.30;99.90;;;;;;6229918;22;20007;-89
2022/09/24 12:57:40;;;;;;;7.75;1.40;;;14.30;99.90;;;;;;6281916;22;20024;-93
2022/09/24 13:00:31;;;;;;;4.45;1.05;;;14.30;99.90;;;;;;6253901;22;20015;-88
2022/09/24 13:02:57;;;;;;;6.25;1.23;;;14.30;99.90;;;;;;6280231;22;20015;-91
2022/09/24 13:05:31;;;;;;;8.55;1.55;;;14.30;99.90;;;;;;6253090;22;20011;-91
2022/09/24 13:08:10;;;;;;;7.00;1.13;;;14.30;99.90;;;;;;6227827;22;20022;-89
2022/09/24 13:10:36;;;;;;;4.28;1.33;;;14.30;99.90;;;;;;6254410;22;20030;-93
2022/09/24 13:13:14;;;;;;;5.32;0.98;;;14.30;99.90;;;;;;6280567;22;20023;-90
2022/09/24 13:15:41;;;;;;;3.70;0.70;;;14.30;99.90;;;;;;6280666;22;20448;-90
2022/09/24 13:18:10;;;;;;;4.78;1.00;;;14.30;99.90;;;;;;6253999;22;20016;-92
2022/09/24 13:20:42;;;;;;;5.63;1.23;;;14.30;99.90;;;;;;6229324;22;20022;-91
2022/09/24 13:23:30;;;;;;;11.48;0.85;;;14.30;99.90;;;;;;6254510;22;20095;-91
2022/09/24 13:26:03;;;;;;;4.55;0.75;;;14.30;99.90;;;;;;6254795;22;20007;-90
2022/09/24 13:28:54;;;;;;;2.50;0.60;;;14.30;99.90;;;;;;6253860;22;20503;-91
2022/09/24 13:31:22;;;;;;;5.55;1.02;;;14.30;99.90;;;;;;6259200;22;20019;-91
2022/09/24 13:33:59;;;;;;;8.43;1.00;;;14.30;99.90;;;;;;6263818;22;20020;-90
2022/09/24 19:29:01;;;;;;;12.13;2.78;;;12.30;99.90;;;;;;6273119;22;20019;-86
2022/09/24 19:31:35;;;;;;;11.20;2.28;;;12.20;99.90;;;;;;6272298;22;20085;-85
2022/09/24 19:34:01;;;;;;;9.63;2.88;;;12.20;99.90;;;;;;6272404;22;20400;-86
2022/09/24 19:36:28;;;;;;;10.57;2.42;;;12.10;99.90;;;;;;6272060;22;20003;-86
2022/09/24 19:38:53;;;;;;;6.28;2.90;;;12.10;99.90;;;;;;6270890;22;20091;-86
2022/09/24 19:41:24;;;;;;;7.60;2.33;;;12.00;99.90;;;;;;6271258;22;20334;-85
2022/09/24 19:43:55;;;;;;;8.25;2.13;;;12.00;99.90;;;;;;6271548;22;20011;-86
2022/09/24 19:46:24;;;;;;;9.57;2.88;;;11.90;99.90;;;;;;6273626;22;20085;-86
2022/09/24 19:48:51;;;;;;;6.07;2.50;;;11.90;99.90;;;;;;6270708;22;20595;-87
2022/09/24 19:51:24;;;;;;;7.95;2.33;;;11.90;99.90;;;;;;6272735;22;20228;-87
2022/09/24 19:53:51;;;;;;;11.10;3.13;;;11.80;99.90;;;;;;6270354;22;20004;-87
2022/09/24 19:56:21;;;;;;;12.43;4.25;;;11.80;99.90;;;;;;6271199;22;20070;-87
2022/09/24 19:58:51;;;;;;;17.52;5.18;;;11.80;99.90;;;;;;6272258;22;20340;-87